createdAt,value
2022-09-03T00:00:27.552Z,100289.50
2022-09-03T00:02:59.267Z,100283.69
2022-09-03T00:06:01.636Z,100241.69
2022-09-03T00:08:44.925Z,100191.31
2022-09-03T00:11:41.999Z,100182.81
2022-09-03T00:14:30.548Z,100154.41
2022-09-03T00:17:20.808Z,100177.16
2022-09-03T00:20:07.826Z,100280.44
2022-09-03T00:22:57.959Z,100272.50
2022-09-03T00:25:47.179Z,100176.69
2022-09-03T00:29:03.978Z,100273.81
2022-09-03T00:32:09.446Z,100179.06
2022-09-03T00:34:50.530Z,100154.91
2022-09-03T00:37:23.489Z,100224.19
2022-09-03T00:40:01.755Z,100229.03
2022-09-03T00:42:59.293Z,100232.88
2022-09-03T00:45:54.171Z,100168.78
2022-09-03T00:48:41.737Z,100276.53
2022-09-03T00:51:47.485Z,100271.44
2022-09-03T00:55:00.118Z,100222.44
2022-09-03T00:57:52.930Z,100265.66
2022-09-03T01:00:23.870Z,100193.34
2022-09-03T01:03:20.239Z,100264.34
2022-09-03T01:06:25.777Z,100258.66
2022-09-03T01:09:58.878Z,100232.63
2022-09-03T01:12:55.282Z,100217.53
2022-09-03T01:15:46.407Z,100214.16
2022-09-03T01:18:43.454Z,100250.94
2022-09-03T01:22:00.807Z,100245.81
2022-09-03T01:24:51.581Z,100246.53
2022-09-03T01:27:42.615Z,100236.13
2022-09-03T01:30:20.700Z,100226.41
2022-09-03T01:32:54.918Z,100205.34
2022-09-03T01:35:54.828Z,100219.91
2022-09-03T01:38:40.343Z,100232.16
2022-09-03T01:41:47.296Z,100230.00
2022-09-03T01:44:27.454Z,100231.66
2022-09-03T01:47:34.811Z,100233.09
2022-09-03T01:50:25.547Z,100237.34
2022-09-03T01:53:27.391Z,100135.56
2022-09-03T01:56:17.392Z,100237.53
2022-09-03T01:59:05.024Z,100224.41
2022-09-03T02:01:56.301Z,100183.13
2022-09-03T02:04:29.441Z,100209.78
2022-09-03T02:07:01.498Z,100204.69
2022-09-03T02:09:35.308Z,100142.03
2022-09-03T02:12:10.614Z,100231.56
2022-09-03T02:14:41.329Z,100175.88
2022-09-03T02:17:11.134Z,100200.41
2022-09-03T02:19:42.237Z,100212.00
2022-09-03T02:22:14.113Z,100178.69
2022-09-03T02:24:51.183Z,100207.97
2022-09-03T02:27:23.283Z,100199.03
2022-09-03T02:29:57.976Z,100136.63
2022-09-03T02:32:30.813Z,100184.59
2022-09-03T02:35:00.772Z,100168.94
2022-09-03T02:37:31.300Z,100122.47
2022-09-03T02:40:01.752Z,100105.94
2022-09-03T02:42:32.030Z,100249.22
2022-09-03T02:45:14.152Z,100153.25
2022-09-03T02:47:47.511Z,100131.44
2022-09-03T02:50:25.865Z,100230.63
2022-09-03T02:53:01.102Z,100214.47
2022-09-03T02:55:30.760Z,100179.06
2022-09-03T02:58:06.972Z,100146.78
2022-09-03T03:00:44.784Z,100137.63
2022-09-03T03:03:27.592Z,100229.72
2022-09-03T03:06:06.279Z,100167.81
2022-09-03T03:08:42.680Z,100145.22
2022-09-03T03:11:20.509Z,100119.91
2022-09-03T03:13:56.414Z,100163.84
2022-09-03T03:16:40.623Z,100142.47
2022-09-03T03:19:15.348Z,100238.91
2022-09-03T03:21:55.465Z,100146.75
2022-09-03T03:24:33.507Z,100164.06
2022-09-03T03:27:14.372Z,100096.75
2022-09-03T03:29:47.020Z,100133.94
2022-09-03T03:32:23.724Z,100127.34
2022-09-03T03:35:05.931Z,100140.06
2022-09-03T03:37:45.637Z,100158.75
2022-09-03T03:40:25.839Z,100204.59
2022-09-03T03:43:03.638Z,100122.34
2022-09-03T03:45:46.663Z,100230.41
2022-09-03T03:48:23.949Z,100197.47
2022-09-03T03:51:03.957Z,100178.19
2022-09-03T03:54:03.126Z,100129.34
2022-09-03T03:56:43.516Z,100181.47
2022-09-03T03:59:28.491Z,100148.44
2022-09-03T04:02:06.235Z,100119.28
2022-09-03T04:04:39.788Z,100188.13
2022-09-03T04:07:21.489Z,100099.72
2022-09-03T04:09:53.964Z,100121.50
2022-09-03T04:12:32.875Z,100061.69
2022-09-03T04:15:00.004Z,100124.56
2022-09-03T04:17:29.192Z,100100.47
2022-09-03T04:19:56.631Z,100221.25
2022-09-03T04:22:24.062Z,100007.16
2022-09-03T04:24:51.293Z,100200.22
2022-09-03T04:27:20.403Z,100140.53
2022-09-03T04:29:49.793Z,100200.09
2022-09-03T04:32:38.869Z,100218.00
2022-09-03T04:35:09.827Z,100125.09
2022-09-03T04:37:45.342Z,100217.66
2022-09-03T04:40:12.770Z,100157.63
2022-09-03T04:42:42.314Z,100137.06
2022-09-03T04:45:23.507Z,100097.53
2022-09-03T04:48:05.999Z,99992.03
2022-09-03T04:50:36.372Z,100091.50
2022-09-03T04:53:08.266Z,100079.31
2022-09-03T04:55:43.501Z,100132.38
2022-09-03T04:58:16.226Z,99984.28
2022-09-03T05:00:48.168Z,100208.50
2022-09-03T05:03:24.226Z,100011.44
2022-09-03T05:06:07.416Z,100030.50
2022-09-03T05:08:37.782Z,100224.19
2022-09-03T05:11:11.163Z,100090.22
2022-09-03T05:13:40.878Z,100138.28
2022-09-03T05:16:13.431Z,100171.00
2022-09-03T05:18:43.671Z,100189.25
2022-09-03T05:21:23.028Z,100206.50
2022-09-03T05:23:56.354Z,100181.50
2022-09-03T05:26:28.097Z,100096.75
2022-09-03T05:29:03.016Z,100168.50
2022-09-03T05:31:34.689Z,100211.13
2022-09-03T05:34:10.060Z,100222.84
2022-09-03T05:36:43.080Z,100203.91
2022-09-03T05:39:36.773Z,100059.75
2022-09-03T05:42:30.754Z,100089.69
2022-09-03T05:45:29.146Z,100225.38
2022-09-03T05:48:11.357Z,100228.88
2022-09-03T05:50:39.489Z,100198.31
2022-09-03T05:53:30.605Z,100096.00
2022-09-03T05:56:01.971Z,100231.09
2022-09-03T05:58:41.327Z,100225.22
2022-09-03T06:01:26.052Z,100223.56
2022-09-03T06:04:06.174Z,100235.38
2022-09-03T06:06:35.605Z,100231.31
2022-09-03T06:09:08.390Z,100216.50
2022-09-03T06:11:40.145Z,100216.41
2022-09-03T06:14:13.447Z,100243.63
2022-09-03T06:16:46.047Z,100225.13
2022-09-03T06:19:16.239Z,100181.66
2022-09-03T06:21:48.424Z,100140.72
2022-09-03T06:24:21.417Z,100233.59
2022-09-03T06:26:51.719Z,100189.97
2022-09-03T06:29:22.204Z,100211.25
2022-09-03T06:31:52.380Z,100098.69
2022-09-03T06:34:24.181Z,100243.44
2022-09-03T06:37:06.281Z,100188.91
2022-09-03T06:39:36.740Z,100242.81
2022-09-03T06:42:06.459Z,100257.56
2022-09-03T06:44:37.226Z,100269.25
2022-09-03T06:47:08.653Z,100202.91
2022-09-03T06:49:39.390Z,100275.53
2022-09-03T06:52:12.643Z,100264.38
2022-09-03T06:54:42.084Z,100273.16
2022-09-03T06:57:12.101Z,100278.59
2022-09-03T06:59:42.222Z,100259.00
2022-09-03T07:02:11.183Z,100172.72
2022-09-03T07:04:40.616Z,100285.59
2022-09-03T07:07:17.700Z,100247.38
2022-09-03T07:09:48.496Z,100219.94
2022-09-03T07:12:20.837Z,100262.91
2022-09-03T07:14:54.968Z,100265.22
2022-09-03T07:17:36.113Z,100258.53
2022-09-03T07:20:06.529Z,100240.44
2022-09-03T07:22:41.047Z,100197.34
2022-09-03T07:25:11.988Z,100245.03
2022-09-03T07:27:41.596Z,100160.03
2022-09-03T07:30:15.948Z,100307.06
2022-09-03T07:32:50.404Z,100287.63
2022-09-03T07:35:22.356Z,100095.50
2022-09-03T07:37:57.825Z,100171.09
2022-09-03T07:40:35.600Z,100215.56
2022-09-03T07:43:07.513Z,100146.19
2022-09-03T07:45:35.723Z,100156.88
2022-09-03T07:48:05.081Z,100223.84
2022-09-03T07:50:39.861Z,100233.59
2022-09-03T07:53:11.911Z,100173.56
2022-09-03T07:55:51.801Z,100172.22
2022-09-03T07:58:37.117Z,100065.56
2022-09-03T08:01:11.575Z,100244.22
2022-09-03T08:03:51.865Z,100125.97
2022-09-03T08:06:31.831Z,100214.94
2022-09-03T08:09:15.425Z,100112.88
2022-09-03T08:11:53.183Z,100090.50
2022-09-03T08:14:24.450Z,100303.53
2022-09-03T08:16:58.499Z,100145.97
2022-09-03T08:19:26.713Z,100190.75
2022-09-03T08:22:00.911Z,100350.81
2022-09-03T08:24:34.971Z,100255.47
2022-09-03T08:27:09.354Z,100280.75
2022-09-03T08:29:44.302Z,100167.84
2022-09-03T08:32:24.393Z,100352.94
2022-09-03T08:34:53.833Z,100346.53
2022-09-03T08:37:39.156Z,100347.25
2022-09-03T08:40:14.842Z,100239.69
2022-09-03T08:43:09.762Z,100365.22
2022-09-03T08:45:51.764Z,100306.69
2022-09-03T08:48:25.868Z,100337.59
2022-09-03T08:51:08.700Z,100222.69
2022-09-03T08:54:09.277Z,100195.13
2022-09-03T08:56:46.740Z,100165.97
2022-09-03T08:59:30.074Z,100244.16
2022-09-03T09:02:10.046Z,100153.09
2022-09-03T09:05:21.394Z,100210.34
2022-09-03T09:08:11.265Z,100190.00
2022-09-03T09:11:23.097Z,100350.34
2022-09-03T09:14:08.752Z,100191.41
2022-09-03T09:17:16.269Z,100229.34
2022-09-03T09:20:12.992Z,100359.81
2022-09-03T09:22:48.741Z,100251.22
2022-09-03T09:25:30.195Z,100306.56
2022-09-03T09:28:32.192Z,100352.25
2022-09-03T09:31:13.823Z,100358.13
2022-09-03T09:33:52.119Z,100349.56
2022-09-03T09:36:35.062Z,100357.16
2022-09-03T09:39:21.065Z,100374.00
2022-09-03T09:42:18.905Z,100316.94
2022-09-03T09:44:53.710Z,100296.41
2022-09-03T09:47:45.019Z,100347.34
2022-09-03T09:50:30.635Z,100317.34
2022-09-03T09:53:30.831Z,100379.94
2022-09-03T09:56:04.990Z,100378.31
2022-09-03T09:58:39.474Z,100382.47
2022-09-03T10:01:27.650Z,100385.38
2022-09-03T10:04:32.882Z,100384.78
2022-09-03T10:07:44.899Z,100382.81
2022-09-03T10:10:20.981Z,100336.72
2022-09-03T10:13:12.035Z,100388.09
2022-09-03T10:15:54.627Z,100327.34
2022-09-03T10:18:34.177Z,100392.38
2022-09-03T10:21:28.051Z,100375.88
2022-09-03T10:24:28.083Z,100374.91
2022-09-03T10:27:14.815Z,100348.34
2022-09-03T10:29:55.732Z,100374.78
2022-09-03T10:33:14.210Z,100325.28
2022-09-03T10:36:28.116Z,100323.81
2022-09-03T10:39:22.020Z,100350.63
2022-09-03T10:42:13.253Z,100323.72
2022-09-03T10:45:13.782Z,100332.41
2022-09-03T10:48:33.586Z,100358.03
2022-09-03T10:51:49.240Z,100346.53
2022-09-03T10:54:35.071Z,100365.72
2022-09-03T10:57:26.487Z,100355.72
2022-09-03T11:00:14.576Z,100338.34
2022-09-03T11:02:50.239Z,100362.22
2022-09-03T11:09:23.883Z,100346.00
2022-09-03T11:12:12.068Z,100344.59
2022-09-03T11:14:50.637Z,100256.53
2022-09-03T11:17:43.352Z,100242.53
2022-09-03T11:20:28.048Z,100332.28
2022-09-03T11:23:12.272Z,100344.63
2022-09-03T11:28:59.369Z,100346.97
2022-09-03T11:31:39.731Z,100321.41
2022-09-03T11:34:23.389Z,100329.25
2022-09-03T11:36:50.702Z,100328.59
2022-09-03T11:39:24.852Z,100326.75
2022-09-03T11:42:07.901Z,100313.13
2022-09-03T11:44:48.430Z,100322.84
2022-09-03T11:47:38.746Z,100320.06
2022-09-03T11:50:24.108Z,100311.97
2022-09-03T11:52:53.480Z,100324.72
2022-09-03T11:55:26.455Z,100317.16
2022-09-03T11:57:53.782Z,100311.25
2022-09-03T12:00:25.173Z,100310.63
2022-09-03T12:02:59.072Z,100322.69
2022-09-03T12:05:44.288Z,100329.38
2022-09-03T12:08:47.381Z,100278.63
2022-09-03T12:11:14.317Z,100320.97
2022-09-03T12:14:35.204Z,100310.59
2022-09-03T12:18:16.166Z,100324.34
2022-09-03T12:20:44.347Z,100303.03
2022-09-03T12:23:13.176Z,100325.00
2022-09-03T12:25:49.492Z,100295.44
2022-09-03T12:28:23.701Z,100309.34
2022-09-03T12:30:53.834Z,100287.75
2022-09-03T12:33:23.398Z,100308.25
2022-09-03T12:35:58.744Z,100306.00
2022-09-03T12:38:27.617Z,100300.25
2022-09-03T12:43:46.184Z,100320.22
2022-09-03T12:46:17.651Z,100290.72
2022-09-03T12:51:52.059Z,100307.66
2022-09-03T12:54:21.290Z,100314.25
2022-09-03T12:56:56.458Z,100292.16
2022-09-03T12:59:25.460Z,100304.84
2022-09-03T13:01:56.827Z,100299.59
2022-09-03T13:04:36.633Z,100297.16
2022-09-03T13:07:08.173Z,100269.56
2022-09-03T13:09:38.307Z,100283.81
2022-09-03T13:12:06.053Z,100290.00
2022-09-03T13:14:48.288Z,100298.47
2022-09-03T13:17:42.961Z,100290.69
2022-09-03T13:20:22.950Z,100284.03
2022-09-03T13:23:20.548Z,100290.50
2022-09-03T13:26:24.149Z,100284.53
2022-09-03T13:28:58.423Z,100298.00
2022-09-03T13:31:42.811Z,100295.59
2022-09-03T13:34:22.486Z,100276.66
2022-09-03T13:37:06.045Z,100286.44
2022-09-03T13:39:52.660Z,100252.22
2022-09-03T13:42:42.828Z,100245.16
2022-09-03T13:45:38.798Z,100264.25
2022-09-03T13:48:50.947Z,100283.72
2022-09-03T13:51:43.706Z,100283.78
2022-09-03T13:54:47.776Z,100305.88
2022-09-03T13:57:35.061Z,100304.16
2022-09-03T14:00:22.182Z,100290.91
2022-09-03T14:02:58.219Z,100253.53
2022-09-03T14:05:34.119Z,100310.63
2022-09-03T14:08:22.815Z,100299.41
2022-09-03T14:11:02.122Z,100300.84
2022-09-03T14:14:02.892Z,100294.19
2022-09-03T14:16:29.927Z,100301.22
2022-09-03T14:19:11.777Z,100288.13
2022-09-03T14:22:06.298Z,100281.19
2022-09-03T14:24:55.706Z,100295.53
2022-09-03T14:27:31.770Z,100268.34
2022-09-03T14:30:06.711Z,100288.22
2022-09-03T14:33:05.988Z,100288.97
2022-09-03T14:35:46.122Z,100267.91
2022-09-03T14:38:30.884Z,100281.78
2022-09-03T14:41:20.860Z,100239.84
2022-09-03T14:44:18.757Z,100275.91
2022-09-03T14:47:08.500Z,100280.88
2022-09-03T14:49:57.871Z,100283.13
2022-09-03T14:52:24.556Z,100286.38
2022-09-03T14:55:03.891Z,100279.56
2022-09-03T14:57:55.272Z,100275.06
2022-09-03T15:00:43.540Z,100269.22
2022-09-03T15:03:28.276Z,100282.91
2022-09-03T15:05:55.073Z,100283.78
2022-09-03T15:08:34.002Z,100294.84
2022-09-03T15:11:04.177Z,100248.78
2022-09-03T15:13:34.890Z,100281.00
2022-09-03T15:16:01.751Z,100279.34
2022-09-03T15:18:58.986Z,100270.31
2022-09-03T15:21:44.014Z,100275.75
2022-09-03T15:24:43.796Z,100273.94
2022-09-03T15:27:33.942Z,100257.19
2022-09-03T15:30:11.208Z,100255.03
2022-09-03T15:32:52.056Z,100259.66
2022-09-03T15:35:38.299Z,100259.47
2022-09-03T15:38:20.928Z,100257.38
2022-09-03T15:40:47.675Z,100271.69
2022-09-03T15:43:28.088Z,100209.81
2022-09-03T15:46:00.223Z,100259.22
2022-09-03T15:48:36.108Z,100242.03
2022-09-03T15:51:26.274Z,100232.75
2022-09-03T15:53:56.331Z,100252.59
2022-09-03T15:56:32.765Z,100237.91
2022-09-03T15:59:30.030Z,100256.03
2022-09-03T16:02:05.885Z,100245.25
2022-09-03T16:05:12.606Z,100259.16
2022-09-03T16:07:50.333Z,100233.78
2022-09-03T16:10:26.477Z,100245.44
2022-09-03T16:13:14.938Z,100253.75
2022-09-03T16:15:58.018Z,100233.28
2022-09-03T16:18:39.365Z,100256.72
2022-09-03T16:21:25.947Z,100260.41
2022-09-03T16:23:59.078Z,100258.31
2022-09-03T16:26:29.725Z,100268.19
2022-09-03T16:29:17.459Z,100242.06
2022-09-03T16:31:58.098Z,100258.72
2022-09-03T16:34:37.484Z,100265.25
2022-09-03T16:37:10.085Z,100257.06
2022-09-03T16:39:55.655Z,100257.00
2022-09-03T16:42:42.807Z,100272.75
2022-09-03T16:45:38.274Z,100250.69
2022-09-03T16:48:26.847Z,100242.75
2022-09-03T16:51:06.673Z,100271.53
2022-09-03T16:54:12.226Z,100269.91
2022-09-03T16:57:00.462Z,100258.91
2022-09-03T16:59:48.505Z,100263.88
2022-09-03T17:02:39.872Z,100272.81
2022-09-03T17:05:41.284Z,100265.84
2022-09-03T17:08:14.487Z,100275.00
2022-09-03T17:10:41.349Z,100276.81
2022-09-03T17:13:32.517Z,100230.09
2022-09-03T17:16:08.382Z,100265.69
2022-09-03T17:18:53.302Z,100270.34
2022-09-03T17:21:38.811Z,100275.91
2022-09-03T17:24:13.778Z,100257.13
2022-09-03T17:27:03.519Z,100265.97
2022-09-03T17:29:55.726Z,100257.53
2022-09-03T17:32:46.265Z,100267.41
2022-09-03T17:35:20.223Z,100242.00
2022-09-03T17:37:56.726Z,100262.72
2022-09-03T17:40:36.771Z,100238.84
2022-09-03T17:43:17.155Z,100249.50
2022-09-03T17:46:26.323Z,100266.59
2022-09-03T17:48:55.961Z,100238.59
2022-09-03T17:51:36.041Z,100278.66
2022-09-03T17:54:07.615Z,100262.22
2022-09-03T17:56:50.079Z,100263.59
2022-09-03T17:59:40.843Z,100263.72
2022-09-03T18:02:18.275Z,100258.41
2022-09-03T18:05:08.253Z,100253.56
2022-09-03T18:08:01.026Z,100259.28
2022-09-03T18:10:34.662Z,100266.16
2022-09-03T18:13:23.742Z,100248.38
2022-09-03T18:16:07.508Z,100257.09
2022-09-03T18:18:43.169Z,100265.63
2022-09-03T18:21:32.835Z,100268.84
2022-09-03T18:24:26.355Z,100272.34
2022-09-03T18:27:18.332Z,100262.63
2022-09-03T18:30:08.872Z,100283.44
2022-09-03T18:32:54.380Z,100281.50
2022-09-03T18:35:40.243Z,100264.31
2022-09-03T18:38:25.422Z,100265.22
2022-09-03T18:41:58.477Z,100263.19
2022-09-03T18:45:20.320Z,100274.75
2022-09-03T18:48:25.252Z,100279.84
2022-09-03T18:51:24.901Z,100255.41
2022-09-03T18:54:25.371Z,100281.16
2022-09-03T18:57:12.238Z,100280.78
2022-09-03T19:00:26.677Z,100280.13
2022-09-03T19:03:29.945Z,100289.56
2022-09-03T19:06:50.794Z,100260.75
2022-09-03T19:10:07.151Z,100286.53
2022-09-03T19:13:04.758Z,100285.53
2022-09-03T19:16:16.142Z,100207.19
2022-09-03T19:19:22.871Z,100287.53
2022-09-03T19:22:15.541Z,100293.63
2022-09-03T19:25:01.207Z,100272.03
2022-09-03T19:28:00.468Z,100297.63
2022-09-03T19:31:13.797Z,100286.13
2022-09-03T19:34:17.805Z,100294.84
2022-09-03T19:37:18.181Z,100308.56
2022-09-03T19:40:23.777Z,100314.22
2022-09-03T19:46:13.182Z,100321.72
2022-09-03T19:49:16.981Z,100311.19
2022-09-03T19:52:49.007Z,100314.28
2022-09-03T19:55:44.224Z,100316.91
2022-09-03T19:58:43.130Z,100302.25
2022-09-03T20:01:29.844Z,100326.84
2022-09-03T20:04:18.422Z,100326.63
2022-09-03T20:07:06.145Z,100329.56
2022-09-03T20:09:58.752Z,100326.63
2022-09-03T20:12:31.564Z,100307.13
2022-09-03T20:14:58.468Z,100270.16
2022-09-03T20:17:31.589Z,100345.22
2022-09-03T20:20:07.431Z,100339.28
2022-09-03T20:22:54.464Z,100351.75
2022-09-03T20:25:41.406Z,100352.09
2022-09-03T20:28:31.982Z,100299.25
2022-09-03T20:31:05.811Z,100361.47
2022-09-03T20:33:39.031Z,100365.47
2022-09-03T20:36:08.762Z,100373.28
2022-09-03T20:39:16.149Z,100364.28
2022-09-03T20:41:59.011Z,100368.91
2022-09-03T20:44:38.093Z,100377.31
2022-09-03T20:47:31.175Z,100371.63
2022-09-03T20:50:22.000Z,100336.06
2022-09-03T20:52:56.883Z,100387.63
2022-09-03T20:55:29.217Z,100378.28
2022-09-03T20:58:18.711Z,100373.16
2022-09-03T21:00:53.981Z,100378.13
2022-09-03T21:04:08.123Z,100370.47
2022-09-03T21:06:50.622Z,100371.16
2022-09-03T21:09:23.566Z,100384.28
2022-09-03T21:12:05.113Z,100339.03
2022-09-03T21:14:47.038Z,100384.66
2022-09-03T21:17:28.187Z,100384.19
2022-09-03T21:20:21.774Z,100371.06
2022-09-03T21:22:53.045Z,100391.28
2022-09-03T21:25:33.070Z,100381.72
2022-09-03T21:28:06.036Z,100387.84
2022-09-03T21:30:38.280Z,100382.75
2022-09-03T21:33:11.994Z,100389.16
2022-09-03T21:35:53.572Z,100389.16
2022-09-03T21:38:31.678Z,100378.63
2022-09-03T21:41:20.346Z,100395.75
2022-09-03T21:43:57.626Z,100395.53
2022-09-03T21:46:57.044Z,100368.44
2022-09-03T21:49:29.717Z,100371.28
2022-09-03T21:52:11.626Z,100386.69
2022-09-03T21:54:38.567Z,100378.25
2022-09-03T21:57:23.586Z,100387.25
2022-09-03T22:00:09.288Z,100404.06
2022-09-03T22:02:36.549Z,100389.84
2022-09-03T22:05:05.198Z,100382.97
2022-09-03T22:08:24.681Z,100381.13
2022-09-03T22:11:02.212Z,100375.88
2022-09-03T22:13:35.953Z,100388.88
2022-09-03T22:16:39.474Z,100387.13
2022-09-03T22:19:09.228Z,100389.25
2022-09-03T22:21:47.894Z,100377.44
2022-09-03T22:24:26.722Z,100359.22
2022-09-03T22:27:15.729Z,100384.84
2022-09-03T22:29:51.702Z,100336.88
2022-09-03T22:32:33.830Z,100359.34
2022-09-03T22:35:25.079Z,100381.06
2022-09-03T22:38:00.983Z,100387.25
2022-09-03T22:40:36.813Z,100374.50
2022-09-03T22:43:12.525Z,100376.59
2022-09-03T22:45:58.865Z,100367.59
2022-09-03T22:48:51.651Z,100366.66
2022-09-03T22:51:21.740Z,100369.59
2022-09-03T22:54:00.857Z,100396.34
2022-09-03T22:56:32.467Z,100369.97
2022-09-03T22:59:19.517Z,100381.31
2022-09-03T23:02:00.649Z,100353.75
2022-09-03T23:04:40.201Z,100379.00
2022-09-03T23:07:21.854Z,100379.34
2022-09-03T23:09:55.854Z,100375.66
2022-09-03T23:12:35.649Z,100383.41
2022-09-03T23:15:06.632Z,100383.41
2022-09-03T23:17:40.859Z,100370.50
2022-09-03T23:20:22.648Z,100374.22
2022-09-03T23:23:00.101Z,100376.47
2022-09-03T23:25:31.491Z,100364.06
2022-09-03T23:28:10.097Z,100345.38
2022-09-03T23:30:37.442Z,100356.47
2022-09-03T23:33:04.318Z,100339.19
2022-09-03T23:35:42.699Z,100304.09
2022-09-03T23:38:54.743Z,100362.97
2022-09-03T23:41:34.853Z,100374.50
2022-09-03T23:44:09.157Z,100349.63
2022-09-03T23:46:53.581Z,100346.44
2022-09-03T23:49:29.431Z,100371.50
2022-09-03T23:52:19.362Z,100365.59
2022-09-03T23:54:58.482Z,100358.84
2022-09-03T23:57:35.803Z,100350.56
